Time;durP1;ratioP1;P1;durP2;ratioP2;P2;SDS_P1;SDS_P2;PMS_P1;PMS_P2;Temp;Humidity;BMP_temperature;BMP_pressure;BME280_temperature;BME280_humidity;BME280_pressure;Samples;Min_cycle;Max_cycle;Signal;HPM_P1;HPM_P2
2021/05/30 21:10:03;;;;;;;5.97;3.00;;;15.00;56.50;;;;;;5070424;28;20386;-74
2021/05/30 21:12:32;;;;;;;6.47;2.40;;;14.80;59.70;;;;;;5069833;28;20412;-74
2021/05/30 21:14:58;;;;;;;4.10;2.60;;;14.90;59.20;;;;;;5069830;28;20449;-74
2021/05/30 21:17:24;;;;;;;4.90;2.50;;;14.90;58.40;;;;;;5069804;28;20095;-74
2021/05/30 21:19:51;;;;;;;8.15;3.20;;;15.00;57.90;;;;;;5069832;28;20044;-73
2021/05/30 21:22:17;;;;;;;4.05;2.55;;;15.00;57.40;;;;;;5069910;28;20098;-74
2021/05/30 21:24:43;;;;;;;6.20;2.47;;;15.10;57.10;;;;;;5069920;28;20115;-73
2021/05/30 21:27:09;;;;;;;4.43;2.70;;;15.10;56.80;;;;;;5069824;28;20146;-73
2021/05/30 21:29:35;;;;;;;6.97;2.83;;;15.20;56.60;;;;;;5069713;28;20029;-74
2021/05/30 21:32:03;;;;;;;6.13;2.78;;;15.20;56.40;;;;;;5069836;28;20044;-73
2021/05/30 21:34:29;;;;;;;3.58;2.47;;;15.20;56.20;;;;;;5068372;28;20040;-75
2021/05/30 21:36:54;;;;;;;5.82;2.50;;;15.20;56.10;;;;;;5068115;28;20021;-73
2021/05/30 21:39:20;;;;;;;6.07;2.70;;;15.20;56.00;;;;;;5069497;28;20036;-73
2021/05/30 21:41:46;;;;;;;3.97;2.67;;;15.20;56.00;;;;;;5069704;28;20048;-72
2021/05/30 21:44:12;;;;;;;4.20;2.60;;;15.20;55.80;;;;;;5069469;28;20520;-72
2021/05/30 21:46:38;;;;;;;4.80;2.65;;;15.10;55.80;;;;;;5068498;28;20402;-73
2021/05/30 21:49:04;;;;;;;3.17;2.55;;;15.20;55.90;;;;;;5069214;28;20048;-73
2021/05/30 21:51:30;;;;;;;5.65;2.40;;;15.20;55.90;;;;;;5067942;28;20056;-72
2021/05/30 21:53:56;;;;;;;3.58;2.30;;;15.20;55.80;;;;;;5069300;28;20025;-72
2021/05/30 21:56:22;;;;;;;3.10;2.50;;;15.10;55.70;;;;;;5069400;28;20040;-73
2021/05/30 21:58:48;;;;;;;4.15;2.50;;;15.20;55.90;;;;;;5069049;28;20045;-73
2021/05/30 22:01:14;;;;;;;4.15;2.75;;;15.20;55.80;;;;;;5069352;28;20079;-73
2021/05/30 22:03:40;;;;;;;4.22;2.00;;;15.10;55.70;;;;;;5069104;28;20481;-74
2021/05/30 22:06:05;;;;;;;2.83;2.10;;;15.10;55.80;;;;;;5068829;28;20127;-74
2021/05/30 22:08:31;;;;;;;4.22;2.50;;;15.10;55.50;;;;;;5067400;28;20216;-74
2021/05/30 22:10:57;;;;;;;2.97;2.40;;;15.10;55.30;;;;;;5069097;28;20154;-74
2021/05/30 22:13:24;;;;;;;6.07;2.33;;;15.10;55.60;;;;;;5069385;28;20036;-73
2021/05/30 22:15:53;;;;;;;3.15;2.42;;;15.10;55.30;;;;;;5068885;28;20063;-74
2021/05/30 22:21:05;;;;;;;6.18;2.20;;;15.10;55.60;;;;;;5056948;28;20037;-73
2021/05/30 22:23:32;;;;;;;5.10;2.25;;;15.00;55.80;;;;;;5055600;28;20113;-73
2021/05/30 22:25:57;;;;;;;5.47;2.35;;;15.00;55.70;;;;;;5055510;28;20029;-74
2021/05/30 22:28:23;;;;;;;6.13;2.10;;;15.00;55.70;;;;;;5055473;28;20044;-74
2021/05/30 22:30:50;;;;;;;4.28;2.35;;;15.00;55.70;;;;;;5055141;28;20063;-74
2021/05/30 22:33:16;;;;;;;4.82;2.03;;;15.00;55.60;;;;;;5055334;28;20021;-74
2021/05/30 22:35:42;;;;;;;5.20;1.90;;;15.00;55.60;;;;;;5054982;28;20052;-74
2021/05/30 22:38:10;;;;;;;2.38;2.17;;;15.00;55.40;;;;;;5055261;28;20037;-74
2021/05/30 22:40:37;;;;;;;3.10;2.30;;;15.00;55.70;;;;;;5054061;28;20033;-73
2021/05/30 22:43:03;;;;;;;5.82;2.30;;;14.90;55.50;;;;;;5055439;28;20182;-73
2021/05/30 22:45:29;;;;;;;2.42;2.22;;;14.90;55.70;;;;;;5054832;28;20041;-74
2021/05/30 22:47:55;;;;;;;4.25;2.53;;;14.90;55.70;;;;;;5055011;28;20037;-74
2021/05/30 22:50:21;;;;;;;5.68;2.40;;;14.90;55.60;;;;;;5055029;28;20033;-73
2021/05/30 22:52:47;;;;;;;4.25;2.13;;;14.90;55.50;;;;;;5054722;28;20208;-74
2021/05/30 22:55:14;;;;;;;3.75;2.20;;;14.90;55.50;;;;;;5055169;28;20124;-74
2021/05/30 22:57:41;;;;;;;3.88;1.80;;;14.90;55.50;;;;;;5054705;28;20032;-73
2021/05/30 23:00:25;;;;;;;2.85;1.98;;;14.80;55.30;;;;;;5054689;28;20041;-73
2021/05/30 23:02:51;;;;;;;4.07;1.67;;;14.90;55.30;;;;;;5053306;28;20044;-74
2021/05/30 23:05:18;;;;;;;4.72;2.17;;;14.80;55.30;;;;;;5055002;28;20037;-73
2021/05/30 23:07:44;;;;;;;2.38;2.05;;;14.70;55.50;;;;;;5054265;28;20036;-73
2021/05/30 23:10:13;;;;;;;2.65;2.00;;;14.70;55.40;;;;;;5055038;28;20041;-74
2021/05/30 23:12:43;;;;;;;4.47;1.90;;;14.80;55.50;;;;;;5053380;28;20048;-72
2021/05/30 23:15:11;;;;;;;1.73;1.63;;;14.80;55.30;;;;;;5054639;28;20028;-73
2021/05/30 23:17:37;;;;;;;8.57;1.98;;;14.80;55.10;;;;;;5054496;28;20536;-73
2021/05/30 23:20:05;;;;;;;6.25;1.85;;;14.80;55.20;;;;;;5054600;28;20049;-74
2021/05/30 23:22:31;;;;;;;3.22;1.70;;;14.80;55.10;;;;;;5036515;28;20120;-73
2021/05/30 23:24:57;;;;;;;1.77;1.40;;;14.80;55.00;;;;;;5054402;28;20116;-73
2021/05/30 23:27:23;;;;;;;3.78;1.73;;;14.70;54.90;;;;;;5053107;28;20094;-74
2021/05/30 23:29:50;;;;;;;3.90;1.77;;;14.70;54.80;;;;;;5052939;28;20048;-73
2021/05/30 23:32:17;;;;;;;1.45;1.35;;;14.70;54.90;;;;;;5053401;28;20036;-73
2021/05/30 23:34:43;;;;;;;3.20;1.40;;;14.70;54.80;;;;;;5054326;28;20037;-74
2021/05/30 23:37:09;;;;;;;7.47;1.35;;;14.60;55.00;;;;;;5054298;28;20024;-73
2021/05/30 23:39:36;;;;;;;6.78;1.23;;;14.60;54.90;;;;;;5054109;28;20116;-72
2021/05/30 23:42:02;;;;;;;1.80;1.30;;;14.60;55.00;;;;;;5053956;28;20041;-73
2021/05/30 23:44:28;;;;;;;5.57;1.60;;;14.60;54.90;;;;;;5053821;28;20033;-73
2021/05/30 23:46:54;;;;;;;3.03;1.40;;;14.60;54.70;;;;;;5054091;28;20048;-72
2021/05/30 23:49:20;;;;;;;1.73;1.30;;;14.60;54.60;;;;;;5053934;28;20049;-72
2021/05/30 23:51:46;;;;;;;2.92;1.30;;;14.60;54.60;;;;;;5054232;28;20037;-72
2021/05/30 23:54:12;;;;;;;2.95;1.30;;;14.60;54.50;;;;;;5053868;28;20392;-73
2021/05/30 23:56:38;;;;;;;4.57;1.40;;;14.50;54.50;;;;;;5052569;28;20036;-73
2021/05/30 23:59:03;;;;;;;4.50;1.23;;;14.50;54.60;;;;;;5053785;28;20378;-73
